LHSM/SOB METAR and TAF weather

Enter ICAO airport designator
Station Type Date Time Source
LHSM METAR 2021/07/29 02:15 UTC NOAA

LHSM 290215Z AUTO 35008KT 320V020 CAVOK 20/16 Q1015


Station Type Date Time Source
LHSM Decoded METAR 2021/07/29 02:15 UTC NOAA

Station name not available
Jul 28, 2021 - 10:15 PM EDT / 2021.07.29 0215 UTC
Wind: from the N (350 degrees) at 9 MPH (8 KT) (direction variable):0
Visibility: greater than 7 mile(s):0
Temperature: 68 F (20 C)
Dew Point: 60 F (16 C)
Relative Humidity: 77%
Pressure (altimeter): 29.97 in. Hg (1015 hPa)
ob: LHSM 290215Z AUTO 35008KT 320V020 CAVOK 20/16 Q1015
cycle: 2

Station Type Date Time Source
LHSM TAF UTC NOAA

Error!

Example: see airport list